sensor_id;sensor_type;location;lat;lon;timestamp;P1;durP1;ratioP1;P2;durP2;ratioP2
4808;SDS011;2418;49.930;8.606;2022-07-23T00:01:14;5.87;;;5.47;;
4808;SDS011;2418;49.930;8.606;2022-07-23T00:03:40;6.30;;;5.90;;
4808;SDS011;2418;49.930;8.606;2022-07-23T00:06:06;6.70;;;6.10;;
4808;SDS011;2418;49.930;8.606;2022-07-23T00:08:32;6.13;;;5.72;;
4808;SDS011;2418;49.930;8.606;2022-07-23T00:10:58;6.03;;;5.82;;
4808;SDS011;2418;49.930;8.606;2022-07-23T00:13:24;5.97;;;5.68;;
4808;SDS011;2418;49.930;8.606;2022-07-23T00:15:50;7.43;;;6.13;;
4808;SDS011;2418;49.930;8.606;2022-07-23T00:18:16;6.70;;;6.25;;
4808;SDS011;2418;49.930;8.606;2022-07-23T00:20:42;6.90;;;6.20;;
4808;SDS011;2418;49.930;8.606;2022-07-23T00:23:08;7.22;;;6.63;;
4808;SDS011;2418;49.930;8.606;2022-07-23T00:25:34;6.82;;;6.32;;
4808;SDS011;2418;49.930;8.606;2022-07-23T00:28:00;7.75;;;6.05;;
4808;SDS011;2418;49.930;8.606;2022-07-23T00:30:26;7.22;;;6.63;;
4808;SDS011;2418;49.930;8.606;2022-07-23T00:32:56;6.25;;;5.65;;
4808;SDS011;2418;49.930;8.606;2022-07-23T00:35:22;6.60;;;6.10;;
4808;SDS011;2418;49.930;8.606;2022-07-23T00:37:49;6.63;;;6.22;;
4808;SDS011;2418;49.930;8.606;2022-07-23T00:40:15;6.18;;;5.70;;
4808;SDS011;2418;49.930;8.606;2022-07-23T00:42:41;6.85;;;6.15;;
4808;SDS011;2418;49.930;8.606;2022-07-23T00:45:08;6.57;;;5.93;;
4808;SDS011;2418;49.930;8.606;2022-07-23T00:47:33;6.80;;;6.20;;
4808;SDS011;2418;49.930;8.606;2022-07-23T00:49:59;6.70;;;6.18;;
4808;SDS011;2418;49.930;8.606;2022-07-23T00:52:25;5.97;;;5.72;;
4808;SDS011;2418;49.930;8.606;2022-07-23T00:54:52;7.00;;;6.50;;
4808;SDS011;2418;49.930;8.606;2022-07-23T00:57:18;6.30;;;6.00;;
4808;SDS011;2418;49.930;8.606;2022-07-23T00:59:44;7.10;;;6.50;;
4808;SDS011;2418;49.930;8.606;2022-07-23T01:02:10;7.13;;;6.53;;
4808;SDS011;2418;49.930;8.606;2022-07-23T01:04:36;6.97;;;6.53;;
4808;SDS011;2418;49.930;8.606;2022-07-23T01:07:02;6.68;;;6.28;;
4808;SDS011;2418;49.930;8.606;2022-07-23T01:09:28;7.10;;;6.65;;
4808;SDS011;2418;49.930;8.606;2022-07-23T01:11:54;7.00;;;6.60;;
4808;SDS011;2418;49.930;8.606;2022-07-23T01:14:20;7.60;;;6.80;;
4808;SDS011;2418;49.930;8.606;2022-07-23T01:16:47;7.38;;;6.88;;
4808;SDS011;2418;49.930;8.606;2022-07-23T01:19:14;8.57;;;6.20;;
4808;SDS011;2418;49.930;8.606;2022-07-23T01:21:41;7.88;;;7.18;;
4808;SDS011;2418;49.930;8.606;2022-07-23T01:24:08;6.60;;;6.00;;
4808;SDS011;2418;49.930;8.606;2022-07-23T01:26:35;7.43;;;6.93;;
4808;SDS011;2418;49.930;8.606;2022-07-23T01:29:01;6.85;;;6.30;;
4808;SDS011;2418;49.930;8.606;2022-07-23T01:31:27;8.30;;;7.50;;
4808;SDS011;2418;49.930;8.606;2022-07-23T01:33:53;6.97;;;6.30;;
4808;SDS011;2418;49.930;8.606;2022-07-23T01:36:19;7.80;;;7.00;;
4808;SDS011;2418;49.930;8.606;2022-07-23T01:38:45;8.30;;;7.60;;
4808;SDS011;2418;49.930;8.606;2022-07-23T01:41:11;9.17;;;8.27;;
4808;SDS011;2418;49.930;8.606;2022-07-23T01:43:37;8.67;;;7.90;;
4808;SDS011;2418;49.930;8.606;2022-07-23T01:46:03;7.70;;;7.20;;
4808;SDS011;2418;49.930;8.606;2022-07-23T01:48:29;7.75;;;7.35;;
4808;SDS011;2418;49.930;8.606;2022-07-23T01:50:55;10.70;;;8.27;;
4808;SDS011;2418;49.930;8.606;2022-07-23T01:53:21;8.82;;;7.93;;
4808;SDS011;2418;49.930;8.606;2022-07-23T01:55:47;8.40;;;7.60;;
4808;SDS011;2418;49.930;8.606;2022-07-23T01:58:12;10.10;;;7.97;;
4808;SDS011;2418;49.930;8.606;2022-07-23T02:00:38;8.30;;;7.70;;
4808;SDS011;2418;49.930;8.606;2022-07-23T02:03:04;8.25;;;7.55;;
4808;SDS011;2418;49.930;8.606;2022-07-23T02:05:30;8.05;;;7.45;;
4808;SDS011;2418;49.930;8.606;2022-07-23T02:07:59;8.20;;;7.50;;
4808;SDS011;2418;49.930;8.606;2022-07-23T02:10:26;10.27;;;8.32;;
4808;SDS011;2418;49.930;8.606;2022-07-23T02:12:52;8.40;;;7.70;;
4808;SDS011;2418;49.930;8.606;2022-07-23T02:15:18;9.98;;;8.82;;
4808;SDS011;2418;49.930;8.606;2022-07-23T02:17:45;9.70;;;7.47;;
4808;SDS011;2418;49.930;8.606;2022-07-23T02:20:11;10.27;;;8.02;;
4808;SDS011;2418;49.930;8.606;2022-07-23T02:22:37;8.10;;;7.50;;
4808;SDS011;2418;49.930;8.606;2022-07-23T02:25:06;8.05;;;7.45;;
4808;SDS011;2418;49.930;8.606;2022-07-23T02:27:32;8.10;;;7.40;;
4808;SDS011;2418;49.930;8.606;2022-07-23T02:29:58;14.25;;;8.48;;
4808;SDS011;2418;49.930;8.606;2022-07-23T02:32:24;8.73;;;8.10;;
4808;SDS011;2418;49.930;8.606;2022-07-23T02:34:50;9.10;;;7.60;;
4808;SDS011;2418;49.930;8.606;2022-07-23T02:37:17;8.95;;;8.25;;
4808;SDS011;2418;49.930;8.606;2022-07-23T02:39:43;8.15;;;7.45;;
4808;SDS011;2418;49.930;8.606;2022-07-23T02:42:09;9.38;;;8.57;;
4808;SDS011;2418;49.930;8.606;2022-07-23T02:44:35;8.13;;;7.33;;
4808;SDS011;2418;49.930;8.606;2022-07-23T02:47:01;8.50;;;7.70;;
4808;SDS011;2418;49.930;8.606;2022-07-23T02:49:27;9.20;;;8.30;;
4808;SDS011;2418;49.930;8.606;2022-07-23T02:51:53;8.52;;;7.72;;
4808;SDS011;2418;49.930;8.606;2022-07-23T02:54:19;11.50;;;8.40;;
4808;SDS011;2418;49.930;8.606;2022-07-23T02:56:45;8.07;;;7.47;;
4808;SDS011;2418;49.930;8.606;2022-07-23T02:59:11;8.23;;;7.40;;
4808;SDS011;2418;49.930;8.606;2022-07-23T03:01:37;9.50;;;8.00;;
4808;SDS011;2418;49.930;8.606;2022-07-23T03:04:03;8.40;;;7.80;;
4808;SDS011;2418;49.930;8.606;2022-07-23T03:06:29;8.60;;;7.90;;
4808;SDS011;2418;49.930;8.606;2022-07-23T03:08:55;8.10;;;7.60;;
4808;SDS011;2418;49.930;8.606;2022-07-23T03:11:21;8.57;;;7.93;;
4808;SDS011;2418;49.930;8.606;2022-07-23T03:13:47;9.23;;;7.93;;
4808;SDS011;2418;49.930;8.606;2022-07-23T03:16:13;9.18;;;8.38;;
4808;SDS011;2418;49.930;8.606;2022-07-23T03:18:39;7.93;;;7.40;;
4808;SDS011;2418;49.930;8.606;2022-07-23T03:21:05;8.40;;;7.90;;
4808;SDS011;2418;49.930;8.606;2022-07-23T03:23:31;8.60;;;8.00;;
4808;SDS011;2418;49.930;8.606;2022-07-23T03:25:57;9.65;;;8.27;;
4808;SDS011;2418;49.930;8.606;2022-07-23T03:28:23;8.70;;;8.00;;
4808;SDS011;2418;49.930;8.606;2022-07-23T03:30:49;9.27;;;8.30;;
4808;SDS011;2418;49.930;8.606;2022-07-23T03:33:16;9.00;;;8.20;;
4808;SDS011;2418;49.930;8.606;2022-07-23T03:35:43;9.13;;;8.23;;
4808;SDS011;2418;49.930;8.606;2022-07-23T03:38:09;7.97;;;7.28;;
4808;SDS011;2418;49.930;8.606;2022-07-23T03:40:35;8.50;;;7.60;;
4808;SDS011;2418;49.930;8.606;2022-07-23T03:43:01;9.05;;;8.25;;
4808;SDS011;2418;49.930;8.606;2022-07-23T03:45:27;10.60;;;8.10;;
4808;SDS011;2418;49.930;8.606;2022-07-23T03:47:53;9.20;;;8.50;;
4808;SDS011;2418;49.930;8.606;2022-07-23T03:50:19;8.80;;;8.05;;
4808;SDS011;2418;49.930;8.606;2022-07-23T03:52:45;9.40;;;8.52;;
4808;SDS011;2418;49.930;8.606;2022-07-23T03:55:11;8.32;;;7.53;;
4808;SDS011;2418;49.930;8.606;2022-07-23T03:57:37;9.07;;;8.27;;
4808;SDS011;2418;49.930;8.606;2022-07-23T04:00:04;9.27;;;8.50;;
4808;SDS011;2418;49.930;8.606;2022-07-23T04:02:30;12.38;;;8.50;;
4808;SDS011;2418;49.930;8.606;2022-07-23T04:04:56;9.32;;;8.52;;
4808;SDS011;2418;49.930;8.606;2022-07-23T04:07:23;11.13;;;9.13;;
4808;SDS011;2418;49.930;8.606;2022-07-23T04:09:49;8.63;;;7.93;;
4808;SDS011;2418;49.930;8.606;2022-07-23T04:12:15;8.52;;;7.82;;
4808;SDS011;2418;49.930;8.606;2022-07-23T04:14:41;8.93;;;8.02;;
4808;SDS011;2418;49.930;8.606;2022-07-23T04:17:07;9.23;;;7.93;;
4808;SDS011;2418;49.930;8.606;2022-07-23T04:19:33;8.35;;;7.55;;
4808;SDS011;2418;49.930;8.606;2022-07-23T04:22:00;8.70;;;7.90;;
4808;SDS011;2418;49.930;8.606;2022-07-23T04:24:26;9.18;;;8.38;;
4808;SDS011;2418;49.930;8.606;2022-07-23T04:26:52;9.20;;;8.40;;
4808;SDS011;2418;49.930;8.606;2022-07-23T04:29:18;10.80;;;7.03;;
4808;SDS011;2418;49.930;8.606;2022-07-23T04:31:44;8.70;;;8.00;;
4808;SDS011;2418;49.930;8.606;2022-07-23T04:34:10;9.18;;;7.20;;
4808;SDS011;2418;49.930;8.606;2022-07-23T04:36:35;8.10;;;7.40;;
4808;SDS011;2418;49.930;8.606;2022-07-23T04:39:01;8.30;;;7.70;;
4808;SDS011;2418;49.930;8.606;2022-07-23T04:41:27;8.65;;;7.10;;
4808;SDS011;2418;49.930;8.606;2022-07-23T04:43:53;8.07;;;7.37;;
4808;SDS011;2418;49.930;8.606;2022-07-23T04:46:19;7.63;;;7.10;;
4808;SDS011;2418;49.930;8.606;2022-07-23T04:48:45;9.37;;;7.80;;
4808;SDS011;2418;49.930;8.606;2022-07-23T04:51:11;7.67;;;7.07;;
4808;SDS011;2418;49.930;8.606;2022-07-23T04:53:37;7.40;;;6.90;;
4808;SDS011;2418;49.930;8.606;2022-07-23T04:56:03;7.85;;;7.35;;
4808;SDS011;2418;49.930;8.606;2022-07-23T04:58:29;7.33;;;6.77;;
4808;SDS011;2418;49.930;8.606;2022-07-23T05:00:56;7.90;;;7.40;;
4808;SDS011;2418;49.930;8.606;2022-07-23T05:03:23;7.40;;;7.00;;
4808;SDS011;2418;49.930;8.606;2022-07-23T05:05:49;7.93;;;7.32;;
4808;SDS011;2418;49.930;8.606;2022-07-23T05:08:15;8.50;;;7.90;;
4808;SDS011;2418;49.930;8.606;2022-07-23T05:10:41;8.48;;;7.68;;
4808;SDS011;2418;49.930;8.606;2022-07-23T05:13:07;8.02;;;7.43;;
4808;SDS011;2418;49.930;8.606;2022-07-23T05:15:32;9.40;;;8.13;;
4808;SDS011;2418;49.930;8.606;2022-07-23T05:17:58;9.13;;;8.47;;
4808;SDS011;2418;49.930;8.606;2022-07-23T05:20:24;9.27;;;8.37;;
4808;SDS011;2418;49.930;8.606;2022-07-23T05:22:50;8.60;;;7.80;;
4808;SDS011;2418;49.930;8.606;2022-07-23T05:25:16;8.75;;;8.05;;
4808;SDS011;2418;49.930;8.606;2022-07-23T05:27:42;9.70;;;8.70;;
4808;SDS011;2418;49.930;8.606;2022-07-23T05:30:08;8.88;;;8.20;;
4808;SDS011;2418;49.930;8.606;2022-07-23T05:32:34;8.55;;;7.95;;
4808;SDS011;2418;49.930;8.606;2022-07-23T05:35:01;8.82;;;8.10;;
4808;SDS011;2418;49.930;8.606;2022-07-23T05:37:28;8.35;;;7.40;;
4808;SDS011;2418;49.930;8.606;2022-07-23T05:39:54;8.38;;;7.68;;
4808;SDS011;2418;49.930;8.606;2022-07-23T05:42:20;9.13;;;8.32;;
4808;SDS011;2418;49.930;8.606;2022-07-23T05:44:46;9.30;;;8.50;;
4808;SDS011;2418;49.930;8.606;2022-07-23T05:47:12;8.57;;;7.77;;
4808;SDS011;2418;49.930;8.606;2022-07-23T05:49:38;8.60;;;7.70;;
4808;SDS011;2418;49.930;8.606;2022-07-23T05:52:05;8.68;;;7.85;;
4808;SDS011;2418;49.930;8.606;2022-07-23T05:54:31;8.40;;;7.73;;
4808;SDS011;2418;49.930;8.606;2022-07-23T05:56:59;8.10;;;7.50;;
4808;SDS011;2418;49.930;8.606;2022-07-23T05:59:25;9.10;;;8.30;;
4808;SDS011;2418;49.930;8.606;2022-07-23T06:01:51;8.15;;;7.47;;
4808;SDS011;2418;49.930;8.606;2022-07-23T06:04:17;8.77;;;8.00;;
4808;SDS011;2418;49.930;8.606;2022-07-23T06:06:43;8.25;;;7.75;;
4808;SDS011;2418;49.930;8.606;2022-07-23T06:09:09;7.78;;;7.18;;
4808;SDS011;2418;49.930;8.606;2022-07-23T06:11:38;8.80;;;7.90;;
4808;SDS011;2418;49.930;8.606;2022-07-23T06:14:04;8.57;;;7.77;;
4808;SDS011;2418;49.930;8.606;2022-07-23T06:16:30;8.70;;;8.00;;
4808;SDS011;2418;49.930;8.606;2022-07-23T06:18:56;9.80;;;8.90;;
4808;SDS011;2418;49.930;8.606;2022-07-23T06:21:21;8.80;;;8.00;;
4808;SDS011;2418;49.930;8.606;2022-07-23T06:23:47;9.07;;;8.23;;
4808;SDS011;2418;49.930;8.606;2022-07-23T06:26:13;8.50;;;7.60;;
4808;SDS011;2418;49.930;8.606;2022-07-23T06:28:39;9.10;;;8.40;;
4808;SDS011;2418;49.930;8.606;2022-07-23T06:31:05;8.85;;;7.63;;
4808;SDS011;2418;49.930;8.606;2022-07-23T06:33:31;7.78;;;7.18;;
4808;SDS011;2418;49.930;8.606;2022-07-23T06:35:57;10.05;;;8.00;;
4808;SDS011;2418;49.930;8.606;2022-07-23T06:38:23;8.60;;;7.82;;
4808;SDS011;2418;49.930;8.606;2022-07-23T06:40:49;11.23;;;8.00;;
4808;SDS011;2418;49.930;8.606;2022-07-23T06:43:15;8.50;;;7.80;;
4808;SDS011;2418;49.930;8.606;2022-07-23T06:45:41;8.80;;;7.45;;
4808;SDS011;2418;49.930;8.606;2022-07-23T06:48:07;8.20;;;7.60;;
4808;SDS011;2418;49.930;8.606;2022-07-23T06:50:33;7.97;;;7.38;;
4808;SDS011;2418;49.930;8.606;2022-07-23T06:52:59;8.07;;;7.50;;
4808;SDS011;2418;49.930;8.606;2022-07-23T06:55:25;8.65;;;7.85;;
4808;SDS011;2418;49.930;8.606;2022-07-23T06:57:51;7.80;;;7.30;;
4808;SDS011;2418;49.930;8.606;2022-07-23T07:00:17;8.00;;;7.40;;
4808;SDS011;2418;49.930;8.606;2022-07-23T07:02:43;8.60;;;7.90;;
4808;SDS011;2418;49.930;8.606;2022-07-23T07:05:09;7.60;;;6.90;;
4808;SDS011;2418;49.930;8.606;2022-07-23T07:07:35;8.13;;;7.43;;
4808;SDS011;2418;49.930;8.606;2022-07-23T07:10:02;9.00;;;7.40;;
4808;SDS011;2418;49.930;8.606;2022-07-23T07:12:28;8.20;;;7.50;;
4808;SDS011;2418;49.930;8.606;2022-07-23T07:14:54;7.88;;;7.00;;
4808;SDS011;2418;49.930;8.606;2022-07-23T07:17:20;9.13;;;8.43;;
4808;SDS011;2418;49.930;8.606;2022-07-23T07:19:46;8.70;;;8.00;;
4808;SDS011;2418;49.930;8.606;2022-07-23T07:22:12;12.10;;;7.77;;
4808;SDS011;2418;49.930;8.606;2022-07-23T07:24:38;10.00;;;8.00;;
4808;SDS011;2418;49.930;8.606;2022-07-23T07:27:04;8.17;;;7.57;;
4808;SDS011;2418;49.930;8.606;2022-07-23T07:29:30;7.32;;;6.80;;
4808;SDS011;2418;49.930;8.606;2022-07-23T07:31:56;7.90;;;7.30;;
4808;SDS011;2418;49.930;8.606;2022-07-23T07:34:22;7.00;;;6.50;;
4808;SDS011;2418;49.930;8.606;2022-07-23T07:36:48;7.00;;;6.50;;
4808;SDS011;2418;49.930;8.606;2022-07-23T07:39:14;7.30;;;6.70;;
4808;SDS011;2418;49.930;8.606;2022-07-23T07:41:40;7.50;;;7.00;;
4808;SDS011;2418;49.930;8.606;2022-07-23T07:44:06;6.57;;;6.00;;
4808;SDS011;2418;49.930;8.606;2022-07-23T07:46:32;6.80;;;6.20;;
4808;SDS011;2418;49.930;8.606;2022-07-23T07:48:58;6.40;;;6.00;;
4808;SDS011;2418;49.930;8.606;2022-07-23T07:51:25;6.70;;;6.20;;
4808;SDS011;2418;49.930;8.606;2022-07-23T07:53:51;9.27;;;6.77;;
4808;SDS011;2418;49.930;8.606;2022-07-23T07:56:17;8.50;;;7.20;;
4808;SDS011;2418;49.930;8.606;2022-07-23T07:58:43;7.90;;;7.10;;
4808;SDS011;2418;49.930;8.606;2022-07-23T08:01:08;7.00;;;6.40;;
4808;SDS011;2418;49.930;8.606;2022-07-23T08:03:34;7.72;;;7.22;;
4808;SDS011;2418;49.930;8.606;2022-07-23T08:06:00;8.13;;;6.50;;
4808;SDS011;2418;49.930;8.606;2022-07-23T08:08:26;7.28;;;6.78;;
4808;SDS011;2418;49.930;8.606;2022-07-23T08:10:52;6.78;;;6.20;;
4808;SDS011;2418;49.930;8.606;2022-07-23T08:13:18;9.13;;;6.68;;
4808;SDS011;2418;49.930;8.606;2022-07-23T08:15:44;7.20;;;6.70;;
4808;SDS011;2418;49.930;8.606;2022-07-23T08:18:10;7.50;;;6.72;;
4808;SDS011;2418;49.930;8.606;2022-07-23T08:20:36;6.73;;;6.03;;
4808;SDS011;2418;49.930;8.606;2022-07-23T08:23:03;6.93;;;6.43;;
4808;SDS011;2418;49.930;8.606;2022-07-23T08:27:56;6.85;;;6.25;;
4808;SDS011;2418;49.930;8.606;2022-07-23T08:30:22;6.95;;;6.35;;
4808;SDS011;2418;49.930;8.606;2022-07-23T08:35:35;7.40;;;6.72;;
4808;SDS011;2418;49.930;8.606;2022-07-23T08:38:02;7.22;;;6.53;;
4808;SDS011;2418;49.930;8.606;2022-07-23T08:40:30;6.90;;;6.40;;
4808;SDS011;2418;49.930;8.606;2022-07-23T08:42:57;6.78;;;6.43;;
4808;SDS011;2418;49.930;8.606;2022-07-23T08:45:25;6.45;;;5.95;;
4808;SDS011;2418;49.930;8.606;2022-07-23T08:47:52;6.65;;;6.15;;
4808;SDS011;2418;49.930;8.606;2022-07-23T08:50:18;6.80;;;6.40;;
4808;SDS011;2418;49.930;8.606;2022-07-23T08:52:44;7.38;;;6.68;;
4808;SDS011;2418;49.930;8.606;2022-07-23T08:55:10;6.82;;;6.25;;
4808;SDS011;2418;49.930;8.606;2022-07-23T08:57:36;6.38;;;5.78;;
4808;SDS011;2418;49.930;8.606;2022-07-23T09:00:02;6.17;;;5.77;;
4808;SDS011;2418;49.930;8.606;2022-07-23T09:02:29;6.82;;;6.32;;
4808;SDS011;2418;49.930;8.606;2022-07-23T09:04:55;7.07;;;6.47;;
4808;SDS011;2418;49.930;8.606;2022-07-23T09:07:20;6.65;;;6.10;;
4808;SDS011;2418;49.930;8.606;2022-07-23T09:09:46;6.15;;;5.85;;
4808;SDS011;2418;49.930;8.606;2022-07-23T09:12:12;7.10;;;6.50;;
4808;SDS011;2418;49.930;8.606;2022-07-23T09:14:43;6.93;;;6.43;;
4808;SDS011;2418;49.930;8.606;2022-07-23T09:17:15;7.00;;;6.50;;
4808;SDS011;2418;49.930;8.606;2022-07-23T09:19:42;6.53;;;6.15;;
4808;SDS011;2418;49.930;8.606;2022-07-23T09:22:24;6.60;;;6.10;;
4808;SDS011;2418;49.930;8.606;2022-07-23T09:27:55;6.70;;;6.20;;
4808;SDS011;2418;49.930;8.606;2022-07-23T09:30:22;7.97;;;5.75;;
4808;SDS011;2418;49.930;8.606;2022-07-23T09:33:05;5.93;;;5.60;;
4808;SDS011;2418;49.930;8.606;2022-07-23T09:38:09;6.50;;;5.82;;
4808;SDS011;2418;49.930;8.606;2022-07-23T09:40:35;6.70;;;6.20;;
4808;SDS011;2418;49.930;8.606;2022-07-23T09:43:01;6.50;;;6.00;;
4808;SDS011;2418;49.930;8.606;2022-07-23T09:45:27;8.68;;;6.85;;
4808;SDS011;2418;49.930;8.606;2022-07-23T09:48:09;6.80;;;6.20;;
4808;SDS011;2418;49.930;8.606;2022-07-23T09:50:35;6.28;;;5.97;;
4808;SDS011;2418;49.930;8.606;2022-07-23T09:53:01;6.90;;;6.40;;
4808;SDS011;2418;49.930;8.606;2022-07-23T09:55:30;6.30;;;5.97;;
4808;SDS011;2418;49.930;8.606;2022-07-23T09:58:05;6.70;;;6.20;;
4808;SDS011;2418;49.930;8.606;2022-07-23T10:00:36;8.55;;;6.22;;
4808;SDS011;2418;49.930;8.606;2022-07-23T10:03:02;6.70;;;6.20;;
4808;SDS011;2418;49.930;8.606;2022-07-23T10:05:30;6.85;;;6.45;;
4808;SDS011;2418;49.930;8.606;2022-07-23T10:07:56;6.85;;;6.55;;
4808;SDS011;2418;49.930;8.606;2022-07-23T10:10:23;6.20;;;5.90;;
4808;SDS011;2418;49.930;8.606;2022-07-23T10:12:51;9.95;;;5.65;;
4808;SDS011;2418;49.930;8.606;2022-07-23T10:15:38;7.18;;;6.38;;
4808;SDS011;2418;49.930;8.606;2022-07-23T10:18:05;6.53;;;6.20;;
4808;SDS011;2418;49.930;8.606;2022-07-23T10:20:32;6.00;;;5.70;;
4808;SDS011;2418;49.930;8.606;2022-07-23T10:23:00;6.30;;;6.00;;
4808;SDS011;2418;49.930;8.606;2022-07-23T10:27:59;6.15;;;5.72;;
4808;SDS011;2418;49.930;8.606;2022-07-23T10:30:33;6.70;;;6.20;;
4808;SDS011;2418;49.930;8.606;2022-07-23T10:38:31;7.60;;;7.10;;
4808;SDS011;2418;49.930;8.606;2022-07-23T10:41:01;7.78;;;7.20;;
4808;SDS011;2418;49.930;8.606;2022-07-23T10:43:27;7.77;;;7.17;;
4808;SDS011;2418;49.930;8.606;2022-07-23T10:45:53;6.95;;;6.55;;
4808;SDS011;2418;49.930;8.606;2022-07-23T10:48:21;7.50;;;6.90;;
4808;SDS011;2418;49.930;8.606;2022-07-23T10:59:15;6.30;;;6.10;;
4808;SDS011;2418;49.930;8.606;2022-07-23T11:01:41;7.20;;;6.90;;
4808;SDS011;2418;49.930;8.606;2022-07-23T11:04:07;7.75;;;7.15;;
4808;SDS011;2418;49.930;8.606;2022-07-23T11:07:06;7.72;;;7.20;;
4808;SDS011;2418;49.930;8.606;2022-07-23T11:17:26;7.65;;;6.95;;
4808;SDS011;2418;49.930;8.606;2022-07-23T11:25:13;7.80;;;7.00;;
4808;SDS011;2418;49.930;8.606;2022-07-23T11:27:40;6.75;;;6.40;;
4808;SDS011;2418;49.930;8.606;2022-07-23T11:30:08;6.32;;;6.13;;
4808;SDS011;2418;49.930;8.606;2022-07-23T11:32:35;6.68;;;6.28;;
4808;SDS011;2418;49.930;8.606;2022-07-23T11:35:18;6.72;;;6.22;;
4808;SDS011;2418;49.930;8.606;2022-07-23T11:37:45;7.22;;;6.63;;
4808;SDS011;2418;49.930;8.606;2022-07-23T11:40:12;6.95;;;6.40;;
4808;SDS011;2418;49.930;8.606;2022-07-23T11:42:39;6.93;;;6.43;;
4808;SDS011;2418;49.930;8.606;2022-07-23T11:45:07;6.60;;;6.10;;
4808;SDS011;2418;49.930;8.606;2022-07-23T11:47:33;7.00;;;6.60;;
4808;SDS011;2418;49.930;8.606;2022-07-23T11:50:01;6.55;;;6.20;;
4808;SDS011;2418;49.930;8.606;2022-07-23T11:52:28;6.93;;;6.43;;
4808;SDS011;2418;49.930;8.606;2022-07-23T11:54:56;7.60;;;6.20;;
4808;SDS011;2418;49.930;8.606;2022-07-23T11:57:26;6.47;;;6.18;;
4808;SDS011;2418;49.930;8.606;2022-07-23T11:59:58;6.03;;;5.72;;
4808;SDS011;2418;49.930;8.606;2022-07-23T12:02:26;6.00;;;5.60;;
4808;SDS011;2418;49.930;8.606;2022-07-23T12:04:53;5.47;;;5.27;;
4808;SDS011;2418;49.930;8.606;2022-07-23T12:07:26;6.60;;;6.10;;
4808;SDS011;2418;49.930;8.606;2022-07-23T12:09:52;6.55;;;6.20;;
4808;SDS011;2418;49.930;8.606;2022-07-23T12:12:19;6.47;;;6.18;;
4808;SDS011;2418;49.930;8.606;2022-07-23T12:14:52;6.45;;;5.95;;
4808;SDS011;2418;49.930;8.606;2022-07-23T12:17:19;6.57;;;6.07;;
4808;SDS011;2418;49.930;8.606;2022-07-23T12:19:45;7.35;;;5.80;;
4808;SDS011;2418;49.930;8.606;2022-07-23T12:22:12;6.35;;;5.95;;
4808;SDS011;2418;49.930;8.606;2022-07-23T12:27:23;6.10;;;5.80;;
4808;SDS011;2418;49.930;8.606;2022-07-23T12:29:50;6.13;;;5.47;;
4808;SDS011;2418;49.930;8.606;2022-07-23T12:32:20;5.75;;;5.35;;
4808;SDS011;2418;49.930;8.606;2022-07-23T12:34:47;6.05;;;5.85;;
4808;SDS011;2418;49.930;8.606;2022-07-23T12:37:29;5.87;;;5.60;;
4808;SDS011;2418;49.930;8.606;2022-07-23T12:39:56;5.68;;;5.38;;
4808;SDS011;2418;49.930;8.606;2022-07-23T12:42:22;5.57;;;5.35;;
4808;SDS011;2418;49.930;8.606;2022-07-23T12:47:30;5.70;;;5.40;;
4808;SDS011;2418;49.930;8.606;2022-07-23T12:49:56;6.00;;;5.50;;
4808;SDS011;2418;49.930;8.606;2022-07-23T12:52:22;5.68;;;5.40;;
4808;SDS011;2418;49.930;8.606;2022-07-23T12:54:48;6.00;;;5.80;;
4808;SDS011;2418;49.930;8.606;2022-07-23T12:57:14;6.38;;;6.07;;
4808;SDS011;2418;49.930;8.606;2022-07-23T12:59:40;6.03;;;5.82;;
4808;SDS011;2418;49.930;8.606;2022-07-23T13:02:08;6.38;;;5.97;;
4808;SDS011;2418;49.930;8.606;2022-07-23T13:04:34;5.97;;;5.60;;
4808;SDS011;2418;49.930;8.606;2022-07-23T13:07:00;6.40;;;5.90;;
4808;SDS011;2418;49.930;8.606;2022-07-23T13:09:30;6.57;;;6.28;;
4808;SDS011;2418;49.930;8.606;2022-07-23T13:11:57;7.05;;;6.15;;
4808;SDS011;2418;49.930;8.606;2022-07-23T13:14:24;5.73;;;5.43;;
4808;SDS011;2418;49.930;8.606;2022-07-23T13:16:50;5.68;;;5.38;;
4808;SDS011;2418;49.930;8.606;2022-07-23T13:19:17;6.22;;;6.03;;
4808;SDS011;2418;49.930;8.606;2022-07-23T13:21:43;5.35;;;5.18;;
4808;SDS011;2418;49.930;8.606;2022-07-23T13:24:09;5.85;;;5.65;;
4808;SDS011;2418;49.930;8.606;2022-07-23T13:26:35;5.30;;;5.20;;
4808;SDS011;2418;49.930;8.606;2022-07-23T13:29:02;6.32;;;5.50;;
4808;SDS011;2418;49.930;8.606;2022-07-23T13:31:28;5.20;;;5.00;;
4808;SDS011;2418;49.930;8.606;2022-07-23T13:33:54;5.57;;;5.38;;
4808;SDS011;2418;49.930;8.606;2022-07-23T13:36:20;6.28;;;6.07;;
4808;SDS011;2418;49.930;8.606;2022-07-23T13:38:46;6.45;;;5.95;;
4808;SDS011;2418;49.930;8.606;2022-07-23T13:41:12;6.30;;;5.90;;
4808;SDS011;2418;49.930;8.606;2022-07-23T13:43:38;6.03;;;5.63;;
4808;SDS011;2418;49.930;8.606;2022-07-23T13:46:04;5.60;;;5.40;;
4808;SDS011;2418;49.930;8.606;2022-07-23T13:48:30;6.05;;;5.65;;
4808;SDS011;2418;49.930;8.606;2022-07-23T13:50:56;6.10;;;5.80;;
4808;SDS011;2418;49.930;8.606;2022-07-23T13:53:23;5.80;;;5.40;;
4808;SDS011;2418;49.930;8.606;2022-07-23T13:55:52;8.98;;;6.50;;
4808;SDS011;2418;49.930;8.606;2022-07-23T13:58:18;5.97;;;5.65;;
4808;SDS011;2418;49.930;8.606;2022-07-23T14:00:48;5.68;;;5.47;;
4808;SDS011;2418;49.930;8.606;2022-07-23T14:03:15;5.30;;;5.20;;
4808;SDS011;2418;49.930;8.606;2022-07-23T14:05:41;6.60;;;6.30;;
4808;SDS011;2418;49.930;8.606;2022-07-23T14:08:07;5.85;;;5.47;;
4808;SDS011;2418;49.930;8.606;2022-07-23T14:10:33;5.90;;;5.60;;
4808;SDS011;2418;49.930;8.606;2022-07-23T14:12:59;5.55;;;5.28;;
4808;SDS011;2418;49.930;8.606;2022-07-23T14:15:27;6.22;;;5.63;;
4808;SDS011;2418;49.930;8.606;2022-07-23T14:17:53;6.30;;;5.77;;
4808;SDS011;2418;49.930;8.606;2022-07-23T14:20:20;6.05;;;5.40;;
4808;SDS011;2418;49.930;8.606;2022-07-23T14:22:46;6.03;;;5.13;;
4808;SDS011;2418;49.930;8.606;2022-07-23T14:25:12;6.30;;;5.80;;
4808;SDS011;2418;49.930;8.606;2022-07-23T14:27:38;6.10;;;5.80;;
4808;SDS011;2418;49.930;8.606;2022-07-23T14:30:05;5.80;;;5.50;;
4808;SDS011;2418;49.930;8.606;2022-07-23T14:32:32;5.80;;;5.50;;
4808;SDS011;2418;49.930;8.606;2022-07-23T14:34:57;6.20;;;5.90;;
4808;SDS011;2418;49.930;8.606;2022-07-23T14:37:23;5.65;;;5.35;;
4808;SDS011;2418;49.930;8.606;2022-07-23T14:39:50;5.93;;;5.72;;
4808;SDS011;2418;49.930;8.606;2022-07-23T14:42:16;5.60;;;5.20;;
4808;SDS011;2418;49.930;8.606;2022-07-23T14:44:42;5.80;;;5.50;;
4808;SDS011;2418;49.930;8.606;2022-07-23T14:47:08;5.50;;;5.30;;
4808;SDS011;2418;49.930;8.606;2022-07-23T14:49:34;6.00;;;5.40;;
4808;SDS011;2418;49.930;8.606;2022-07-23T14:52:01;5.57;;;5.28;;
4808;SDS011;2418;49.930;8.606;2022-07-23T14:54:27;5.78;;;5.63;;
4808;SDS011;2418;49.930;8.606;2022-07-23T14:56:54;5.70;;;5.40;;
4808;SDS011;2418;49.930;8.606;2022-07-23T14:59:20;6.35;;;5.95;;
4808;SDS011;2418;49.930;8.606;2022-07-23T15:01:46;6.30;;;5.60;;
4808;SDS011;2418;49.930;8.606;2022-07-23T15:04:12;6.10;;;5.80;;
4808;SDS011;2418;49.930;8.606;2022-07-23T15:06:38;5.85;;;5.55;;
4808;SDS011;2418;49.930;8.606;2022-07-23T15:09:04;6.85;;;6.35;;
4808;SDS011;2418;49.930;8.606;2022-07-23T15:11:30;5.45;;;5.20;;
4808;SDS011;2418;49.930;8.606;2022-07-23T15:13:59;6.22;;;6.03;;
4808;SDS011;2418;49.930;8.606;2022-07-23T15:16:25;6.17;;;5.50;;
4808;SDS011;2418;49.930;8.606;2022-07-23T15:18:51;5.50;;;5.20;;
4808;SDS011;2418;49.930;8.606;2022-07-23T15:21:17;6.20;;;5.60;;
4808;SDS011;2418;49.930;8.606;2022-07-23T15:23:43;5.70;;;5.50;;
4808;SDS011;2418;49.930;8.606;2022-07-23T15:26:09;5.70;;;5.40;;
4808;SDS011;2418;49.930;8.606;2022-07-23T15:28:35;5.65;;;5.45;;
4808;SDS011;2418;49.930;8.606;2022-07-23T15:31:01;6.10;;;5.60;;
4808;SDS011;2418;49.930;8.606;2022-07-23T15:33:27;5.30;;;4.95;;
4808;SDS011;2418;49.930;8.606;2022-07-23T15:35:53;5.78;;;5.47;;
4808;SDS011;2418;49.930;8.606;2022-07-23T15:38:24;5.80;;;5.50;;
4808;SDS011;2418;49.930;8.606;2022-07-23T15:40:50;5.30;;;5.10;;
4808;SDS011;2418;49.930;8.606;2022-07-23T15:43:16;5.28;;;5.00;;
4808;SDS011;2418;49.930;8.606;2022-07-23T15:45:42;5.67;;;5.27;;
4808;SDS011;2418;49.930;8.606;2022-07-23T15:48:09;5.53;;;5.07;;
4808;SDS011;2418;49.930;8.606;2022-07-23T15:50:35;5.10;;;4.90;;
4808;SDS011;2418;49.930;8.606;2022-07-23T15:53:01;5.38;;;5.07;;
4808;SDS011;2418;49.930;8.606;2022-07-23T15:55:27;5.38;;;5.07;;
4808;SDS011;2418;49.930;8.606;2022-07-23T15:57:53;5.18;;;4.97;;